createdAt,value
2015-07-04T17:04:49.093Z,386
2015-07-04T17:05:07.343Z,385
2015-07-04T17:05:25.593Z,385
2015-07-04T17:05:43.830Z,385
2015-07-04T17:06:02.064Z,384
2015-07-04T17:06:20.345Z,384
2015-07-04T17:06:39.816Z,383
2015-07-04T17:06:56.847Z,383
2015-07-04T17:07:15.050Z,382
2015-07-04T17:07:33.300Z,382
2015-07-04T17:07:51.349Z,382
2015-07-04T17:08:09.599Z,381
2015-07-04T17:08:27.834Z,380
2015-07-04T17:08:46.086Z,380
2015-07-04T17:09:04.320Z,379
2015-07-04T17:09:22.586Z,378
2015-07-04T17:09:40.820Z,377
2015-07-04T17:09:59.072Z,376
2015-07-04T17:10:17.322Z,375
2015-07-04T17:10:36.478Z,374
2015-07-04T17:10:53.652Z,373
2015-07-04T17:11:11.886Z,371
2015-07-04T17:11:30.136Z,370
2015-07-04T17:11:48.386Z,369
2015-07-04T17:12:06.624Z,367
2015-07-04T17:12:24.874Z,366
2015-07-04T17:12:43.108Z,365
2015-07-04T17:13:01.360Z,363
2015-07-04T17:13:19.610Z,362
2015-07-04T17:13:37.845Z,360
2015-07-04T17:13:56.095Z,359
2015-07-04T17:14:14.331Z,357
2015-07-04T17:14:32.565Z,356
2015-07-04T17:14:50.815Z,354
2015-07-04T17:15:09.051Z,353
2015-07-04T17:15:27.285Z,352
2015-07-04T17:15:45.535Z,350
2015-07-04T17:16:03.785Z,349
2015-07-04T17:16:21.865Z,347
2015-07-04T17:16:40.115Z,346
2015-07-04T17:16:58.350Z,344
2015-07-04T17:17:16.602Z,343
2015-07-04T17:17:34.836Z,341
2015-07-04T17:17:53.086Z,340
2015-07-04T17:18:11.320Z,338
2015-07-04T17:18:29.605Z,336
2015-07-04T17:18:47.808Z,335
2015-07-04T17:19:06.042Z,334
2015-07-04T17:19:24.294Z,332
2015-07-04T17:19:42.528Z,331
2015-07-04T17:20:00.763Z,330
2015-07-04T17:20:19.013Z,329
2015-07-04T17:20:37.264Z,328
2015-07-04T17:20:55.498Z,327
2015-07-04T17:21:13.748Z,325
2015-07-04T17:21:31.985Z,324
2015-07-04T17:21:50.219Z,323
2015-07-04T17:22:08.469Z,321
2015-07-04T17:22:26.719Z,320
2015-07-04T17:22:44.956Z,319
2015-07-04T17:23:03.206Z,317
2015-07-04T17:23:21.456Z,316
2015-07-04T17:23:39.693Z,314
2015-07-04T17:23:57.927Z,313
2015-07-04T17:24:16.177Z,297
2015-07-04T17:24:52.226Z,268
2015-07-04T17:25:10.476Z,312
2015-07-04T17:25:28.710Z,319
2015-07-04T17:25:46.962Z,320
2015-07-04T17:26:05.197Z,314
2015-07-04T17:26:23.447Z,305
2015-07-04T17:26:41.681Z,317
2015-07-04T17:26:59.917Z,315
2015-07-04T17:27:18.167Z,310
2015-07-04T17:27:36.402Z,312
2015-07-04T17:27:54.654Z,314
2015-07-04T17:28:12.888Z,311
2015-07-04T17:28:31.123Z,314
2015-07-04T17:28:49.373Z,314
2015-07-04T17:29:07.609Z,317
2015-07-04T17:29:25.859Z,319
2015-07-04T17:29:44.093Z,318
2015-07-04T17:30:02.330Z,319
2015-07-04T17:30:20.580Z,319
2015-07-04T17:30:38.830Z,320
2015-07-04T17:30:57.064Z,320
2015-07-04T17:31:15.300Z,322
2015-07-04T17:31:33.550Z,323
2015-07-04T17:31:51.785Z,324
2015-07-04T17:32:10.021Z,325
2015-07-04T17:32:28.271Z,327
2015-07-04T17:32:46.506Z,328
2015-07-04T17:33:04.756Z,329
2015-07-04T17:33:22.993Z,330
2015-07-04T17:33:41.227Z,332
2015-07-04T17:33:59.477Z,333
2015-07-04T17:34:17.728Z,334
2015-07-04T17:34:35.978Z,334
2015-07-04T17:34:54.213Z,335
2015-07-04T17:35:12.447Z,336
2015-07-04T17:35:30.699Z,337
2015-07-04T17:35:48.949Z,338
2015-07-04T17:36:07.183Z,339
2015-07-04T17:36:25.435Z,340
2015-07-04T17:36:43.670Z,341
2015-07-04T17:37:01.920Z,341
2015-07-04T17:37:20.154Z,342
2015-07-04T17:37:38.422Z,343
2015-07-04T17:37:56.672Z,343
2015-07-04T17:38:14.906Z,343
2015-07-04T17:38:33.143Z,342
2015-07-04T17:38:51.408Z,341
2015-07-04T17:39:09.627Z,340
2015-07-04T17:39:27.861Z,339
2015-07-04T17:39:46.099Z,337
2015-07-04T17:40:04.349Z,335
2015-07-04T17:40:22.583Z,333
2015-07-04T17:40:40.835Z,331
2015-07-04T17:40:59.069Z,330
2015-07-04T17:41:17.304Z,328
2015-07-04T17:41:35.554Z,326
2015-07-04T17:41:53.806Z,325
2015-07-04T17:42:12.040Z,323
2015-07-04T17:42:30.290Z,322
2015-07-04T17:42:48.526Z,320
2015-07-04T17:43:06.776Z,319
2015-07-04T17:43:25.010Z,318
2015-07-04T17:43:43.260Z,317
2015-07-04T17:44:01.512Z,316
2015-07-04T17:44:19.746Z,316
2015-07-04T17:44:37.981Z,315
2015-07-04T17:44:56.217Z,315
2015-07-04T17:45:14.467Z,314
2015-07-04T17:45:32.701Z,314
2015-07-04T17:45:50.936Z,314
2015-07-04T17:46:09.172Z,314
2015-07-04T17:46:27.407Z,315
2015-07-04T17:46:45.657Z,315
2015-07-04T17:47:03.894Z,315
2015-07-04T17:47:22.144Z,316
2015-07-04T17:47:40.378Z,316
2015-07-04T17:47:58.628Z,317
2015-07-04T17:48:16.865Z,317
2015-07-04T17:48:35.115Z,317
2015-07-04T17:48:53.365Z,317
2015-07-04T17:49:11.601Z,317
2015-07-04T17:49:29.851Z,317
2015-07-04T17:49:48.085Z,317
2015-07-04T17:50:06.335Z,317
2015-07-04T17:50:24.759Z,316
2015-07-04T17:50:43.009Z,316
2015-07-04T17:51:01.244Z,316
2015-07-04T17:51:19.683Z,316
2015-07-04T17:51:37.918Z,315
2015-07-04T17:51:56.168Z,315
2015-07-04T17:52:14.402Z,315
2015-07-04T17:52:32.654Z,314
2015-07-04T17:52:50.888Z,314
2015-07-04T17:53:09.138Z,314
2015-07-04T17:53:27.375Z,313
2015-07-04T17:53:45.609Z,313
2015-07-04T17:54:03.859Z,313
2015-07-04T17:54:22.109Z,312
2015-07-04T17:54:40.345Z,312
2015-07-04T17:54:58.595Z,312
2015-07-04T17:55:16.845Z,311
2015-07-04T17:55:35.066Z,311
2015-07-04T17:55:53.301Z,311
2015-07-04T17:56:11.551Z,310
2015-07-04T17:56:29.801Z,311
2015-07-04T17:56:48.038Z,310
2015-07-04T17:57:06.272Z,310
2015-07-04T17:57:24.522Z,310
2015-07-04T17:57:42.774Z,310
2015-07-04T17:58:01.009Z,311
2015-07-04T17:58:19.243Z,311
2015-07-04T17:58:37.493Z,311
2015-07-04T17:58:55.728Z,311
2015-07-04T17:59:13.978Z,312
2015-07-04T17:59:32.228Z,312
2015-07-04T17:59:50.465Z,312
2015-07-04T18:00:08.715Z,312
2015-07-04T18:00:26.949Z,312
2015-07-04T18:00:45.199Z,312
2015-07-04T18:01:03.437Z,312
2015-07-04T18:01:21.687Z,312
2015-07-04T18:01:39.921Z,312
2015-07-04T18:01:58.157Z,312
2015-07-04T18:02:16.392Z,312
2015-07-04T18:02:34.642Z,312
2015-07-04T18:02:52.876Z,312
2015-07-04T18:03:11.154Z,311
2015-07-04T18:03:29.388Z,311
2015-07-04T18:03:47.638Z,310
2015-07-04T18:04:05.914Z,310
2015-07-04T18:04:24.164Z,309
2015-07-04T18:04:42.398Z,308
2015-07-04T18:05:00.648Z,308
2015-07-04T18:05:18.929Z,307
2015-07-04T18:05:37.163Z,306
2015-07-04T18:05:55.413Z,305
2015-07-04T18:06:13.704Z,304
2015-07-04T18:06:31.938Z,303
2015-07-04T18:06:50.188Z,302
2015-07-04T18:07:08.438Z,301
2015-07-04T18:07:26.719Z,299
2015-07-04T18:07:44.953Z,298
2015-07-04T18:08:03.203Z,297
2015-07-04T18:08:21.454Z,296
2015-07-04T18:08:39.704Z,295
2015-07-04T18:08:57.939Z,293
2015-07-04T18:09:16.189Z,292
2015-07-04T18:09:34.441Z,291
2015-07-04T18:09:52.691Z,289
2015-07-04T18:10:10.941Z,288
2015-07-04T18:10:29.192Z,287
2015-07-04T18:10:47.442Z,285
2015-07-04T18:11:05.692Z,284
2015-07-04T18:11:23.926Z,283
2015-07-04T18:11:42.178Z,281
2015-07-04T18:12:00.428Z,280
2015-07-04T18:12:18.678Z,279
2015-07-04T18:12:36.928Z,277
2015-07-04T18:12:55.178Z,276
2015-07-04T18:13:13.428Z,275
2015-07-04T18:13:31.678Z,274
2015-07-04T18:13:49.919Z,272
2015-07-04T18:14:08.169Z,271
2015-07-04T18:14:26.403Z,270
2015-07-04T18:14:44.660Z,269
2015-07-04T18:15:02.895Z,267
2015-07-04T18:15:21.160Z,266
2015-07-04T18:15:39.379Z,264
2015-07-04T18:15:57.622Z,263
2015-07-04T18:16:15.872Z,262
2015-07-04T18:16:34.122Z,260
2015-07-04T18:16:52.363Z,259
2015-07-04T18:17:10.613Z,258
2015-07-04T18:17:28.847Z,256
2015-07-04T18:17:47.097Z,255
2015-07-04T18:18:05.338Z,254
2015-07-04T18:18:23.588Z,253
2015-07-04T18:18:41.822Z,252
2015-07-04T18:19:00.060Z,252
2015-07-04T18:19:18.310Z,251
2015-07-04T18:19:36.560Z,250
2015-07-04T18:19:54.810Z,249
2015-07-04T18:20:13.049Z,248
2015-07-04T18:20:31.283Z,248
2015-07-04T18:20:49.533Z,247
2015-07-04T18:21:07.772Z,247
2015-07-04T18:21:26.006Z,246
2015-07-04T18:21:44.256Z,246
2015-07-04T18:22:02.490Z,246
2015-07-04T18:22:20.729Z,245
2015-07-04T18:22:38.979Z,245
2015-07-04T18:22:57.229Z,244
2015-07-04T18:23:15.466Z,244
2015-07-04T18:23:33.700Z,243
2015-07-04T18:23:51.950Z,243
2015-07-04T18:24:10.185Z,242
2015-07-04T18:24:28.438Z,242
2015-07-04T18:24:46.688Z,241
2015-07-04T18:25:04.938Z,240
2015-07-04T18:25:23.175Z,240
2015-07-04T18:25:41.425Z,239
2015-07-04T18:25:59.660Z,238
2015-07-04T18:26:17.894Z,237
2015-07-04T18:26:36.147Z,237
2015-07-04T18:26:54.397Z,236
2015-07-04T18:27:12.647Z,236
2015-07-04T18:27:30.883Z,235
2015-07-04T18:27:49.118Z,235
2015-07-04T18:28:07.368Z,235
2015-07-04T18:28:25.602Z,235
2015-07-04T18:28:43.855Z,235
2015-07-04T18:29:02.089Z,235
2015-07-04T18:29:20.339Z,235
2015-07-04T18:29:38.575Z,235
2015-07-04T18:29:56.825Z,235
2015-07-04T18:30:15.059Z,235
2015-07-04T18:30:33.309Z,236
2015-07-04T18:30:51.547Z,236
2015-07-04T18:31:09.781Z,237
2015-07-04T18:31:28.031Z,237
2015-07-04T18:31:46.267Z,238
2015-07-04T18:32:04.517Z,239
2015-07-04T18:32:22.752Z,240
2015-07-04T18:32:41.002Z,241
2015-07-04T18:32:59.238Z,242
2015-07-04T18:33:17.488Z,243
2015-07-04T18:33:35.722Z,244
2015-07-04T18:33:53.974Z,245
2015-07-04T18:34:12.209Z,246
2015-07-04T18:34:30.443Z,247
2015-07-04T18:34:48.693Z,248
2015-07-04T18:35:06.945Z,249
2015-07-04T18:35:25.180Z,250
2015-07-04T18:35:43.430Z,251
2015-07-04T18:36:01.666Z,252
2015-07-04T18:36:19.900Z,253
2015-07-04T18:36:38.150Z,254
2015-07-04T18:36:56.400Z,255
2015-07-04T18:37:14.637Z,256
2015-07-04T18:37:32.887Z,257
2015-07-04T18:37:51.121Z,258
2015-07-04T18:38:09.373Z,258
2015-07-04T18:38:27.607Z,259
2015-07-04T18:38:45.842Z,259
2015-07-04T18:39:04.092Z,259
2015-07-04T18:39:22.344Z,259
2015-07-04T18:39:40.578Z,259
2015-07-04T18:39:58.828Z,259
2015-07-04T18:40:17.080Z,258
2015-07-04T18:40:35.315Z,257
2015-07-04T18:40:53.549Z,257
2015-07-04T18:41:11.799Z,256
2015-07-04T18:41:30.051Z,255
2015-07-04T18:41:48.301Z,254
2015-07-04T18:42:06.535Z,252
2015-07-04T18:42:24.772Z,251
2015-07-04T18:42:43.006Z,249
2015-07-04T18:43:01.256Z,247
2015-07-04T18:43:19.490Z,245
2015-07-04T18:43:37.728Z,242
2015-07-04T18:43:55.978Z,240
2015-07-04T18:44:14.212Z,238
2015-07-04T18:44:32.480Z,235
2015-07-04T18:44:50.714Z,232
2015-07-04T18:45:08.964Z,230
2015-07-04T18:45:27.199Z,227
2015-07-04T18:45:45.435Z,224
2015-07-04T18:46:03.685Z,221
2015-07-04T18:46:21.935Z,218
2015-07-04T18:46:40.171Z,215
2015-07-04T18:46:58.406Z,212
2015-07-04T18:47:16.656Z,209
2015-07-04T18:47:34.890Z,206
2015-07-04T18:47:53.142Z,203
2015-07-04T18:48:11.376Z,200
2015-07-04T18:48:29.626Z,197
2015-07-04T18:48:47.862Z,194
2015-07-04T18:49:06.096Z,191
2015-07-04T18:49:24.346Z,188
2015-07-04T18:49:42.581Z,185
2015-07-04T18:50:00.834Z,183
2015-07-04T18:50:19.068Z,180
2015-07-04T18:50:37.318Z,178
2015-07-04T18:50:55.554Z,175
2015-07-04T18:51:13.789Z,173
2015-07-04T18:51:32.039Z,171
2015-07-04T18:51:50.273Z,169
2015-07-04T18:52:08.509Z,166
2015-07-04T18:52:26.759Z,164
2015-07-04T18:52:45.009Z,162
2015-07-04T18:53:03.261Z,160
2015-07-04T18:53:21.496Z,158
2015-07-04T18:53:39.730Z,156
2015-07-04T18:53:57.980Z,154
2015-07-04T18:54:16.232Z,153
2015-07-04T18:54:34.467Z,151
2015-07-04T18:54:52.717Z,149
2015-07-04T18:55:10.953Z,148
2015-07-04T18:55:29.219Z,146
2015-07-04T18:55:47.437Z,145
2015-07-04T18:56:05.672Z,143
2015-07-04T18:56:23.923Z,142
2015-07-04T18:56:42.157Z,141
2015-07-04T18:57:00.391Z,139
2015-07-04T18:57:18.643Z,138
2015-07-04T18:57:36.878Z,136
2015-07-04T18:57:55.128Z,135
2015-07-04T18:58:13.362Z,133
2015-07-04T18:58:31.615Z,131
2015-07-04T18:58:49.865Z,130
2015-07-04T18:59:08.100Z,128
2015-07-04T18:59:26.352Z,126
2015-07-04T18:59:44.586Z,125
2015-07-04T19:00:02.836Z,123
2015-07-04T19:00:21.070Z,121
2015-07-04T19:00:39.307Z,120
2015-07-04T19:00:57.557Z,118
2015-07-04T19:01:15.807Z,116
2015-07-04T19:01:34.043Z,115
2015-07-04T19:01:52.277Z,113
2015-07-04T19:02:10.527Z,112
2015-07-04T19:02:28.777Z,111
2015-07-04T19:02:47.014Z,110
2015-07-04T19:03:05.264Z,109
2015-07-04T19:03:23.514Z,108
2015-07-04T19:03:41.750Z,107
2015-07-04T19:03:59.985Z,106
2015-07-04T19:04:18.235Z,105
2015-07-04T19:04:36.469Z,104
2015-07-04T19:04:54.721Z,103
2015-07-04T19:05:12.955Z,102
2015-07-04T19:05:31.205Z,101
2015-07-04T19:05:49.457Z,100
2015-07-04T19:06:07.692Z,99
2015-07-04T19:06:25.926Z,98
2015-07-04T19:06:44.176Z,97
2015-07-04T19:07:02.413Z,96
2015-07-04T19:07:20.663Z,95
2015-07-04T19:07:38.742Z,94
2015-07-04T19:07:56.993Z,93
2015-07-04T19:08:15.227Z,92
2015-07-04T19:08:33.461Z,92
2015-07-04T19:08:51.555Z,91
2015-07-04T19:09:09.791Z,90
2015-07-04T19:09:28.041Z,90
2015-07-04T19:09:46.291Z,89
2015-07-04T19:10:04.528Z,88
2015-07-04T19:10:22.778Z,87
2015-07-04T19:10:41.012Z,87
2015-07-04T19:10:59.262Z,86
2015-07-04T19:11:17.500Z,85
2015-07-04T19:11:35.750Z,84
2015-07-04T19:11:54.000Z,83
2015-07-04T19:12:12.236Z,82
2015-07-04T19:12:30.486Z,81
2015-07-04T19:12:48.736Z,80
2015-07-04T19:13:06.970Z,79
2015-07-04T19:13:25.222Z,78
2015-07-04T19:13:43.457Z,77
2015-07-04T19:14:01.707Z,76
2015-07-04T19:14:19.943Z,76
2015-07-04T19:14:38.193Z,75
2015-07-04T19:14:56.427Z,73
2015-07-04T19:15:14.677Z,75
2015-07-04T19:15:32.913Z,74
2015-07-04T19:15:51.147Z,73
2015-07-04T19:16:09.397Z,71
2015-07-04T19:16:27.634Z,70
2015-07-04T19:16:45.868Z,69
2015-07-04T19:17:04.118Z,68
2015-07-04T19:17:22.352Z,66
2015-07-04T19:17:40.605Z,65
2015-07-04T19:17:58.840Z,63
2015-07-04T19:18:17.074Z,62
2015-07-04T19:18:35.326Z,57
2015-07-04T19:18:53.560Z,56
2015-07-04T19:19:11.810Z,54
2015-07-04T19:19:30.045Z,53
2015-07-04T19:19:48.297Z,51
2015-07-04T19:20:06.531Z,49
2015-07-04T19:20:24.797Z,48
2015-07-04T19:20:43.049Z,46
2015-07-04T19:21:01.283Z,45
2015-07-04T19:21:19.533Z,43
2015-07-04T19:21:37.768Z,42
2015-07-04T19:21:56.035Z,40
2015-07-04T19:22:14.270Z,39
2015-07-04T19:22:32.504Z,37
2015-07-04T19:22:50.740Z,36
2015-07-04T19:23:08.990Z,35
2015-07-04T19:23:27.240Z,32
2015-07-04T19:23:45.475Z,31
2015-07-04T19:24:03.727Z,30
2015-07-04T19:24:21.977Z,29
2015-07-04T19:24:40.211Z,28
2015-07-04T19:24:58.463Z,27
2015-07-04T19:25:16.697Z,26
2015-07-04T19:25:34.932Z,26
2015-07-04T19:25:53.182Z,25
2015-07-04T19:26:11.418Z,24
2015-07-04T19:26:29.653Z,23
2015-07-04T19:26:47.903Z,23
2015-07-04T19:27:06.155Z,22
2015-07-04T19:27:24.389Z,21
2015-07-04T19:27:42.623Z,21
2015-07-04T19:28:00.873Z,20
2015-07-04T19:28:19.110Z,20
2015-07-04T19:28:37.360Z,20
2015-07-04T19:28:55.594Z,19
2015-07-04T19:29:13.846Z,19
2015-07-04T19:29:32.080Z,18
2015-07-04T19:29:50.330Z,18
2015-07-04T19:30:08.580Z,18
2015-07-04T19:30:26.818Z,17
2015-07-04T19:30:45.083Z,17
2015-07-04T19:31:03.302Z,17
2015-07-04T19:31:21.554Z,16
2015-07-04T19:31:39.789Z,16
2015-07-04T19:31:58.039Z,15
2015-07-04T19:32:16.289Z,15
2015-07-04T19:32:34.541Z,14
2015-07-04T19:32:52.775Z,14
2015-07-04T19:33:11.009Z,14
2015-07-04T19:33:29.261Z,13
2015-07-04T19:33:47.511Z,12
2015-07-04T19:34:05.746Z,12
2015-07-04T19:34:23.996Z,13
2015-07-04T19:34:42.231Z,11
2015-07-04T19:35:00.481Z,10
2015-07-04T19:35:18.715Z,9
2015-07-04T19:35:36.967Z,9
2015-07-04T19:35:55.202Z,9
2015-07-04T19:36:13.436Z,8
2015-07-04T19:36:31.671Z,8
2015-07-04T19:36:49.924Z,8
2015-07-04T19:37:08.174Z,7
2015-07-04T19:37:26.408Z,7
2015-07-04T19:37:44.660Z,7
2015-07-04T19:38:02.894Z,7
2015-07-04T19:38:21.144Z,6
2015-07-04T19:38:39.379Z,6
2015-07-04T19:38:57.630Z,6
2015-07-04T19:39:15.848Z,6
2015-07-04T19:39:34.114Z,6
2015-07-04T19:39:52.351Z,6
2015-07-04T19:40:10.601Z,6
2015-07-04T19:40:28.851Z,6
2015-07-04T19:40:47.086Z,6
2015-07-04T19:41:05.321Z,6
2015-07-04T19:41:23.556Z,6
2015-07-04T19:41:41.806Z,6
2015-07-04T19:42:00.073Z,5
2015-07-04T19:42:18.292Z,5
2015-07-04T19:42:36.526Z,5
2015-07-04T19:42:54.776Z,5
2015-07-04T19:43:13.029Z,5
2015-07-04T19:43:31.279Z,5
2015-07-04T19:43:49.498Z,7
2015-07-04T19:44:07.750Z,5
2015-07-04T19:44:26.000Z,6
2015-07-04T19:44:44.234Z,5
2015-07-04T19:45:02.484Z,10
2015-07-04T19:45:20.721Z,10
2015-07-04T19:45:38.971Z,10
2015-07-04T19:45:57.205Z,10
2015-07-04T19:46:15.457Z,9
2015-07-04T19:46:33.707Z,9
2015-07-04T19:46:51.942Z,4
2015-07-04T19:47:10.192Z,3
2015-07-04T19:47:28.428Z,3
2015-07-04T19:47:46.662Z,3
2015-07-04T19:48:04.912Z,3
2015-07-04T19:48:23.149Z,3
2015-07-04T19:48:41.414Z,3
2015-07-04T19:48:59.633Z,3
2015-07-04T19:49:17.867Z,3
2015-07-04T19:49:36.104Z,2
2015-07-04T19:49:54.338Z,2
2015-07-04T19:50:12.573Z,2
2015-07-04T19:50:30.825Z,2
2015-07-04T19:50:49.059Z,2
2015-07-04T19:51:07.293Z,2
2015-07-04T19:51:25.543Z,2
2015-07-04T19:51:43.780Z,2
2015-07-04T19:52:02.030Z,1
2015-07-04T19:52:20.264Z,1
2015-07-04T19:52:38.500Z,1
2015-07-04T19:52:56.735Z,1
2015-07-04T19:53:14.985Z,1
2015-07-04T19:53:33.219Z,1
2015-07-04T19:53:51.456Z,1
2015-07-04T19:54:09.690Z,1
2015-07-04T19:54:27.924Z,1
2015-07-04T19:54:46.177Z,1
2015-07-04T19:55:04.412Z,1
2015-07-04T19:55:22.646Z,1
2015-07-04T19:55:40.880Z,0
2015-07-04T19:55:59.132Z,0
2015-07-04T19:56:17.367Z,0
2015-07-04T19:56:35.601Z,0
2015-07-04T19:56:53.837Z,0
2015-07-04T19:57:12.071Z,0
2015-07-04T19:57:30.305Z,0
2015-07-04T19:57:48.540Z,0
2015-07-04T19:58:06.807Z,0
2015-07-04T19:58:25.042Z,0
2015-07-04T19:58:43.276Z,0
2015-07-04T19:59:01.529Z,0
2015-07-04T19:59:19.779Z,0
2015-07-04T19:59:37.998Z,0
2015-07-04T19:59:56.248Z,0
2015-07-04T20:00:14.484Z,0
2015-07-04T20:00:32.734Z,0
2015-07-04T20:00:50.969Z,0
2015-07-04T20:01:09.204Z,0
2015-07-04T20:01:27.438Z,0
2015-07-04T20:01:45.688Z,0
2015-07-04T20:02:03.923Z,0
2015-07-04T20:02:22.176Z,0
2015-07-04T20:02:40.410Z,0
2015-07-04T20:02:58.660Z,0
2015-07-04T20:03:16.895Z,0
2015-07-04T20:03:35.130Z,0
2015-07-04T20:03:53.380Z,0
2015-07-04T20:04:11.614Z,0
2015-07-04T20:04:29.867Z,0
2015-07-04T20:04:48.102Z,0
2015-07-04T20:05:06.352Z,0
2015-07-04T20:05:24.588Z,0
2015-07-04T20:05:42.838Z,0
2015-07-04T20:06:01.072Z,0
2015-07-04T20:06:19.307Z,0
2015-07-04T20:06:37.558Z,0
2015-07-04T20:06:55.792Z,0
2015-07-04T20:07:14.042Z,0
2015-07-04T20:07:32.278Z,0
2015-07-04T20:07:50.513Z,0
2015-07-04T20:08:08.747Z,0
2015-07-04T20:08:26.982Z,0
2015-07-04T20:08:45.235Z,0
2015-07-04T20:09:03.485Z,0
2015-07-04T20:09:21.703Z,0
2015-07-04T20:09:39.955Z,0
2015-07-04T20:09:58.190Z,0
2015-07-04T20:10:16.424Z,0
2015-07-04T20:10:34.674Z,0
2015-07-04T20:10:52.926Z,0
2015-07-04T20:11:11.160Z,0
2015-07-04T20:11:29.395Z,0
2015-07-04T20:11:47.647Z,0
2015-07-04T20:12:05.912Z,0
2015-07-04T20:12:24.147Z,0
2015-07-04T20:12:42.397Z,0
2015-07-04T20:13:00.633Z,0
2015-07-04T20:13:18.883Z,0
2015-07-04T20:13:37.118Z,0
2015-07-04T20:13:55.354Z,0
2015-07-04T20:14:13.588Z,0
2015-07-04T20:14:31.838Z,0
2015-07-04T20:14:50.073Z,0
2015-07-04T20:15:08.340Z,0
2015-07-04T20:15:26.559Z,0
2015-07-04T20:15:44.809Z,0
2015-07-04T20:16:02.889Z,0
2015-07-04T20:16:21.139Z,0
2015-07-04T20:16:39.374Z,0
2015-07-04T20:16:57.624Z,0
2015-07-04T20:17:15.877Z,0
2015-07-04T20:17:34.142Z,0
2015-07-04T20:17:52.377Z,0
2015-07-04T20:18:10.612Z,0
2015-07-04T20:18:28.846Z,0
2015-07-04T20:18:47.096Z,0
2015-07-04T20:19:05.331Z,0
2015-07-04T20:19:23.583Z,0
2015-07-04T20:19:41.817Z,0
2015-07-04T20:20:00.067Z,0
2015-07-04T20:20:18.319Z,0
2015-07-04T20:20:36.585Z,0
2015-07-04T20:20:54.835Z,0
2015-07-04T20:21:13.069Z,0
2015-07-04T20:21:31.305Z,0
2015-07-04T20:21:49.555Z,0
2015-07-04T20:22:07.805Z,0
2015-07-04T20:22:26.042Z,0
2015-07-04T20:22:44.292Z,0
2015-07-04T20:23:02.526Z,0
2015-07-04T20:23:20.776Z,0
2015-07-04T20:23:39.029Z,0
2015-07-04T20:23:57.264Z,0
2015-07-04T20:24:15.514Z,0
2015-07-04T20:24:33.749Z,0
2015-07-04T20:24:51.999Z,0
2015-07-04T20:25:10.233Z,0
2015-07-04T20:25:28.483Z,0
2015-07-04T20:25:46.720Z,0
2015-07-04T20:26:04.954Z,0
2015-07-04T20:26:23.204Z,0
2015-07-04T20:26:41.457Z,0
2015-07-04T20:26:59.707Z,0
2015-07-04T20:27:17.941Z,0
2015-07-04T20:27:36.176Z,0
2015-07-04T20:27:54.428Z,0
2015-07-04T20:28:12.662Z,0
2015-07-04T20:28:30.912Z,0
2015-07-04T20:28:49.148Z,0
2015-07-04T20:29:07.398Z,0
2015-07-04T20:29:25.632Z,0
2015-07-04T20:29:43.866Z,0
2015-07-04T20:30:02.119Z,0
2015-07-04T20:30:20.354Z,0
2015-07-04T20:30:38.604Z,0
2015-07-04T20:30:56.839Z,0
2015-07-04T20:31:15.089Z,0
2015-07-04T20:31:33.339Z,0
2015-07-04T20:31:51.573Z,0
2015-07-04T20:32:09.826Z,0
2015-07-04T20:32:28.061Z,0
2015-07-04T20:32:46.295Z,0
2015-07-04T20:33:04.531Z,0
2015-07-04T20:33:22.781Z,0
2015-07-04T20:33:41.031Z,0
2015-07-04T20:33:59.265Z,0
2015-07-04T20:34:17.518Z,0
2015-07-04T20:34:35.768Z,0
2015-07-04T20:34:54.002Z,0
2015-07-04T20:35:12.254Z,0
2015-07-04T20:35:30.504Z,0
2015-07-04T20:35:48.739Z,0
2015-07-04T20:36:06.973Z,0
2015-07-04T20:36:25.225Z,0
2015-07-04T20:36:43.459Z,0
2015-07-04T20:37:01.694Z,0
2015-07-04T20:37:19.946Z,0
2015-07-04T20:37:38.180Z,0
2015-07-04T20:37:56.430Z,0
2015-07-04T20:38:14.665Z,0
2015-07-04T20:38:32.901Z,0
2015-07-04T20:38:51.151Z,0
2015-07-04T20:39:09.385Z,0
2015-07-04T20:39:27.637Z,0
2015-07-04T20:39:45.856Z,0
2015-07-04T20:40:04.122Z,0
2015-07-04T20:40:22.356Z,0
2015-07-04T20:40:40.592Z,0
2015-07-04T20:40:58.827Z,0
2015-07-04T20:41:17.077Z,0
2015-07-04T20:41:35.313Z,0
2015-07-04T20:41:53.548Z,0
2015-07-04T20:42:11.798Z,0
2015-07-04T20:42:30.032Z,0
2015-07-04T20:42:48.268Z,0
2015-07-04T20:43:06.518Z,0
2015-07-04T20:43:24.753Z,0
2015-07-04T20:43:43.005Z,0
2015-07-04T20:44:01.239Z,0
2015-07-04T20:44:19.473Z,0
2015-07-04T20:44:37.723Z,0
2015-07-04T20:44:55.961Z,0
2015-07-04T20:45:14.226Z,0
2015-07-04T20:45:32.476Z,0
2015-07-04T20:45:50.712Z,0
2015-07-04T20:46:08.962Z,0
2015-07-04T20:46:27.196Z,0
2015-07-04T20:46:45.431Z,0
2015-07-04T20:47:03.683Z,0
2015-07-04T20:47:21.917Z,0
2015-07-04T20:47:40.167Z,0
2015-07-04T20:47:58.404Z,0
2015-07-04T20:48:16.639Z,0
2015-07-04T20:48:34.873Z,0
2015-07-04T20:48:53.107Z,0
2015-07-04T20:49:11.359Z,0
2015-07-04T20:49:29.594Z,0
2015-07-04T20:49:47.828Z,0
2015-07-04T20:50:06.064Z,0
2015-07-04T20:50:24.298Z,0
2015-07-04T20:50:42.548Z,0
2015-07-04T20:51:00.782Z,0
2015-07-04T20:51:19.035Z,0
2015-07-04T20:51:37.270Z,0
2015-07-04T20:51:55.504Z,0
2015-07-04T20:52:13.756Z,0
2015-07-04T20:52:32.006Z,0
2015-07-04T20:52:50.240Z,0
2015-07-04T20:53:08.506Z,0
2015-07-04T20:53:26.726Z,0
2015-07-04T20:53:44.960Z,0
2015-07-04T20:54:03.210Z,0
2015-07-04T20:54:21.447Z,0
2015-07-04T20:54:39.681Z,0
2015-07-04T20:54:57.915Z,0
2015-07-04T20:55:16.150Z,0
2015-07-04T20:55:34.402Z,0
2015-07-04T20:55:52.636Z,0
2015-07-04T20:56:10.870Z,0
2015-07-04T20:56:29.122Z,0
2015-07-04T20:56:47.357Z,0
2015-07-04T20:57:05.607Z,0
2015-07-04T20:57:23.841Z,0
2015-07-04T20:57:42.079Z,0
2015-07-04T20:58:00.313Z,0
2015-07-04T20:58:18.563Z,0
2015-07-04T20:58:36.799Z,0
2015-07-04T20:58:55.049Z,0
2015-07-04T20:59:13.284Z,0
2015-07-04T20:59:31.534Z,0
2015-07-04T20:59:49.770Z,0
2015-07-04T21:00:08.004Z,0
2015-07-04T21:00:26.239Z,0
2015-07-04T21:00:44.491Z,0
2015-07-04T21:01:02.725Z,0
2015-07-04T21:01:20.960Z,0
2015-07-04T21:01:39.194Z,0
2015-07-04T21:01:57.446Z,0
2015-07-04T21:02:15.680Z,0
2015-07-04T21:02:33.915Z,0
2015-07-04T21:02:52.167Z,0
2015-07-04T21:03:10.401Z,0
2015-07-04T21:03:28.651Z,0
2015-07-04T21:03:46.885Z,0
2015-07-04T21:04:05.122Z,0
2015-07-04T21:04:23.372Z,0
2015-07-04T21:04:41.637Z,0
2015-07-04T21:04:59.874Z,0
2015-07-04T21:05:18.124Z,0
2015-07-04T21:05:36.374Z,0
2015-07-04T21:05:54.624Z,0
2015-07-04T21:06:12.876Z,0
2015-07-04T21:06:31.126Z,0
2015-07-04T21:06:49.391Z,0
2015-07-04T21:07:07.643Z,0
2015-07-04T21:07:25.893Z,0
2015-07-04T21:07:44.128Z,0
2015-07-04T21:08:02.378Z,0
2015-07-04T21:08:20.631Z,0
2015-07-04T21:08:38.881Z,0
2015-07-04T21:08:57.115Z,0
2015-07-04T21:09:15.352Z,0
2015-07-04T21:09:33.602Z,0
2015-07-04T21:09:51.836Z,0
2015-07-04T21:10:10.086Z,0
2015-07-04T21:10:28.321Z,0
2015-07-04T21:10:46.556Z,0
2015-07-04T21:11:04.806Z,0
2015-07-04T21:11:23.042Z,0
2015-07-04T21:11:41.276Z,0
2015-07-04T21:11:59.511Z,0
2015-07-04T21:12:17.761Z,0
2015-07-04T21:12:35.997Z,0
2015-07-04T21:12:54.232Z,0
2015-07-04T21:13:12.482Z,0
2015-07-04T21:13:30.718Z,0
2015-07-04T21:13:48.952Z,0
2015-07-04T21:14:07.187Z,0
2015-07-04T21:14:25.452Z,0
2015-07-04T21:14:43.673Z,0
2015-07-04T21:15:01.923Z,0
2015-07-04T21:15:20.157Z,0
2015-07-04T21:15:38.394Z,0
2015-07-04T21:15:56.628Z,0
2015-07-04T21:16:14.863Z,0
2015-07-04T21:16:33.097Z,0
2015-07-04T21:16:51.350Z,0
2015-07-04T21:17:09.600Z,0
2015-07-04T21:17:27.834Z,0
2015-07-04T21:17:46.086Z,0
2015-07-04T21:18:04.180Z,0
2015-07-04T21:18:22.414Z,0
2015-07-04T21:18:40.649Z,0
2015-07-04T21:18:58.900Z,0
2015-07-04T21:19:17.134Z,0
2015-07-04T21:19:35.384Z,0
2015-07-04T21:19:53.636Z,0
2015-07-04T21:20:11.871Z,0
2015-07-04T21:20:30.105Z,0
2015-07-04T21:20:48.339Z,0
2015-07-04T21:21:06.592Z,0
2015-07-04T21:21:24.827Z,0
2015-07-04T21:21:43.061Z,0
2015-07-04T21:22:01.313Z,0
2015-07-04T21:22:19.547Z,0
2015-07-04T21:22:37.797Z,0
2015-07-04T21:22:56.047Z,0
2015-07-04T21:23:14.284Z,0
2015-07-04T21:23:32.518Z,0
2015-07-04T21:23:50.768Z,0
2015-07-04T21:24:09.004Z,0
2015-07-04T21:24:27.254Z,0
2015-07-04T21:24:45.488Z,0